ACA421 CYUL-CYYZ
Flight info
| Callsign | ACA421 |
|---|---|
| Flight time | 0h 59m |
| Altitude | 36000 |
| Route | BOBKI DCT MELTI DCT TORNI RAGID6 |
| Aircraft | A321/M-SDE3FGHIRWY/LB1 |
Departure
| Time | 2026-05-06 21:34 |
|---|---|
| Airport | Montreal / Pierre Elliott Trudeau International Airport (CYUL) |
Arrival
| Time | 2026-05-06 22:33 |
|---|---|
| Airport | Toronto Pearson International Airport (CYYZ) |
| Time | Latitude | Longitude | Altitude | Speed | Heading |
|---|---|---|---|---|---|
| 2026-05-06 20:59 | 45.45931 | -73.74900 | 105 ft | 0 kts | 178° |
| 2026-05-06 21:22 | 45.45932 | -73.74900 | 105 ft | 0 kts | 178° |
| 2026-05-06 21:23 | 45.45949 | -73.74901 | 105 ft | 4 kts | 175° |
| 2026-05-06 21:23 | 45.45971 | -73.74913 | 104 ft | 4 kts | 124° |
| 2026-05-06 21:23 | 45.45979 | -73.74945 | 104 ft | 2 kts | 89° |
| 2026-05-06 21:23 | 45.45979 | -73.74948 | 104 ft | 0 kts | 88° |
| 2026-05-06 21:25 | 45.45979 | -73.74947 | 104 ft | 0 kts | 88° |
| 2026-05-06 21:26 | 45.45981 | -73.74878 | 105 ft | 18 kts | 88° |
| 2026-05-06 21:26 | 45.45964 | -73.74706 | 104 ft | 15 kts | 107° |
| 2026-05-06 21:26 | 45.45963 | -73.74558 | 105 ft | 15 kts | 75° |
| 2026-05-06 21:27 | 45.45994 | -73.74416 | 104 ft | 16 kts | 80° |
| 2026-05-06 21:27 | 45.45987 | -73.74256 | 102 ft | 17 kts | 52° |
| 2026-05-06 21:27 | 45.46094 | -73.74117 | 103 ft | 26 kts | 42° |
| 2026-05-06 21:27 | 45.46225 | -73.73946 | 105 ft | 25 kts | 43° |
| 2026-05-06 21:28 | 45.46350 | -73.73781 | 106 ft | 24 kts | 43° |
| 2026-05-06 21:28 | 45.46467 | -73.73629 | 109 ft | 22 kts | 42° |
| 2026-05-06 21:28 | 45.46575 | -73.73487 | 111 ft | 20 kts | 43° |
| 2026-05-06 21:28 | 45.46674 | -73.73356 | 112 ft | 19 kts | 43° |
| 2026-05-06 21:29 | 45.46769 | -73.73232 | 113 ft | 22 kts | 42° |
| 2026-05-06 21:29 | 45.46886 | -73.73079 | 113 ft | 22 kts | 43° |
| 2026-05-06 21:29 | 45.46996 | -73.72934 | 115 ft | 21 kts | 43° |
| 2026-05-06 21:29 | 45.47100 | -73.72798 | 116 ft | 20 kts | 42° |
| 2026-05-06 21:30 | 45.47197 | -73.72672 | 116 ft | 18 kts | 42° |
| 2026-05-06 21:30 | 45.47288 | -73.72551 | 117 ft | 17 kts | 42° |
| 2026-05-06 21:30 | 45.47374 | -73.72439 | 118 ft | 17 kts | 43° |
| 2026-05-06 21:30 | 45.47499 | -73.72274 | 115 ft | 32 kts | 43° |
| 2026-05-06 21:31 | 45.47663 | -73.72060 | 119 ft | 30 kts | 43° |
| 2026-05-06 21:31 | 45.47770 | -73.71922 | 120 ft | 15 kts | 41° |
| 2026-05-06 21:31 | 45.47812 | -73.71817 | 120 ft | 11 kts | 100° |
| 2026-05-06 21:31 | 45.47775 | -73.71734 | 119 ft | 9 kts | 124° |
| 2026-05-06 21:32 | 45.47767 | -73.71718 | 119 ft | 0 kts | 128° |
| 2026-05-06 21:32 | 45.47761 | -73.71708 | 119 ft | 5 kts | 128° |
| 2026-05-06 21:32 | 45.47720 | -73.71648 | 124 ft | 9 kts | 145° |
| 2026-05-06 21:33 | 45.47656 | -73.71663 | 123 ft | 8 kts | 223° |
| 2026-05-06 21:33 | 45.47648 | -73.71674 | 120 ft | 11 kts | 223° |
| 2026-05-06 21:33 | 45.47379 | -73.72026 | 120 ft | 90 kts | 222° |
| 2026-05-06 21:33 | 45.46764 | -73.72832 | 114 ft | 147 kts | 222° |
| 2026-05-06 21:34 | 45.45964 | -73.73881 | 536 ft | 162 kts | 222° |
| 2026-05-06 21:34 | 45.45088 | -73.75034 | 1014 ft | 179 kts | 223° |
| 2026-05-06 21:34 | 45.44156 | -73.76254 | 1658 ft | 182 kts | 223° |
| 2026-05-06 21:34 | 45.43226 | -73.77465 | 2287 ft | 181 kts | 224° |
| 2026-05-06 21:35 | 45.42296 | -73.78669 | 2889 ft | 181 kts | 224° |
| 2026-05-06 21:35 | 45.41388 | -73.79923 | 3367 ft | 187 kts | 234° |
| 2026-05-06 21:35 | 45.41019 | -73.81752 | 3540 ft | 205 kts | 271° |
| 2026-05-06 21:35 | 45.41048 | -73.83145 | 3663 ft | 221 kts | 273° |
| 2026-05-06 21:36 | 45.41096 | -73.85467 | 3965 ft | 248 kts | 273° |
| 2026-05-06 21:36 | 45.41140 | -73.87993 | 4631 ft | 260 kts | 272° |
| 2026-05-06 21:36 | 45.41180 | -73.90585 | 5558 ft | 262 kts | 272° |
| 2026-05-06 21:36 | 45.41216 | -73.93179 | 6546 ft | 262 kts | 272° |
| 2026-05-06 21:37 | 45.41248 | -73.95773 | 7520 ft | 262 kts | 270° |
| 2026-05-06 21:37 | 45.41276 | -73.98361 | 8502 ft | 260 kts | 269° |
| 2026-05-06 21:37 | 45.41304 | -74.00934 | 9508 ft | 259 kts | 268° |
| 2026-05-06 21:37 | 45.41332 | -74.03505 | 10298 ft | 265 kts | 268° |
| 2026-05-06 21:38 | 45.41355 | -74.06237 | 10546 ft | 288 kts | 268° |
| 2026-05-06 21:38 | 45.41377 | -74.09195 | 10847 ft | 306 kts | 268° |
| 2026-05-06 21:38 | 45.41403 | -74.12261 | 11491 ft | 312 kts | 268° |
| 2026-05-06 21:38 | 45.41432 | -74.15370 | 12242 ft | 315 kts | 268° |
| 2026-05-06 21:39 | 45.41463 | -74.18458 | 12987 ft | 318 kts | 268° |
| 2026-05-06 21:39 | 45.41496 | -74.21660 | 13752 ft | 321 kts | 268° |
| 2026-05-06 21:39 | 45.41526 | -74.24805 | 14412 ft | 323 kts | 267° |
| 2026-05-06 21:39 | 45.41556 | -74.28019 | 15103 ft | 326 kts | 267° |
| 2026-05-06 21:40 | 45.41582 | -74.31260 | 15837 ft | 329 kts | 266° |
| 2026-05-06 21:40 | 45.41608 | -74.34530 | 16489 ft | 332 kts | 266° |
| 2026-05-06 21:40 | 45.41633 | -74.37825 | 17143 ft | 334 kts | 266° |
| 2026-05-06 21:40 | 45.41655 | -74.41147 | 17792 ft | 337 kts | 265° |
| 2026-05-06 21:41 | 45.41422 | -74.44447 | 18372 ft | 335 kts | 254° |
| 2026-05-06 21:41 | 45.40883 | -74.47678 | 18889 ft | 337 kts | 253° |
| 2026-05-06 21:41 | 45.40334 | -74.50934 | 19405 ft | 339 kts | 253° |
| 2026-05-06 21:41 | 45.39785 | -74.54211 | 19908 ft | 342 kts | 253° |
| 2026-05-06 21:42 | 45.39232 | -74.57513 | 20406 ft | 345 kts | 253° |
| 2026-05-06 21:42 | 45.38674 | -74.60843 | 20901 ft | 347 kts | 253° |
| 2026-05-06 21:42 | 45.38112 | -74.64200 | 21405 ft | 350 kts | 253° |
| 2026-05-06 21:42 | 45.37544 | -74.67579 | 21889 ft | 353 kts | 254° |
| 2026-05-06 21:43 | 45.36971 | -74.70977 | 22376 ft | 355 kts | 253° |
| 2026-05-06 21:43 | 45.36389 | -74.74407 | 22902 ft | 357 kts | 254° |
| 2026-05-06 21:43 | 45.35806 | -74.77838 | 23448 ft | 358 kts | 254° |
| 2026-05-06 21:43 | 45.35221 | -74.81285 | 23861 ft | 360 kts | 254° |
| 2026-05-06 21:44 | 45.34632 | -74.84752 | 24228 ft | 362 kts | 254° |
| 2026-05-06 21:44 | 45.34038 | -74.88244 | 24617 ft | 365 kts | 254° |
| 2026-05-06 21:44 | 45.33438 | -74.91761 | 24997 ft | 367 kts | 254° |
| 2026-05-06 21:44 | 45.32832 | -74.95293 | 25377 ft | 369 kts | 254° |
| 2026-05-06 21:45 | 45.32221 | -74.98853 | 25747 ft | 372 kts | 254° |
| 2026-05-06 21:45 | 45.31603 | -75.02433 | 26119 ft | 374 kts | 254° |
| 2026-05-06 21:45 | 45.30989 | -75.05983 | 26485 ft | 376 kts | 254° |
| 2026-05-06 21:45 | 45.30363 | -75.09600 | 26852 ft | 378 kts | 254° |
| 2026-05-06 21:46 | 45.29730 | -75.13241 | 27216 ft | 380 kts | 253° |
| 2026-05-06 21:46 | 45.29091 | -75.16897 | 27575 ft | 383 kts | 253° |
| 2026-05-06 21:46 | 45.28449 | -75.20570 | 28009 ft | 384 kts | 254° |
| 2026-05-06 21:46 | 45.27807 | -75.24252 | 28375 ft | 385 kts | 254° |
| 2026-05-06 21:47 | 45.27159 | -75.27954 | 28707 ft | 387 kts | 254° |
| 2026-05-06 21:47 | 45.26506 | -75.31674 | 29031 ft | 389 kts | 254° |
| 2026-05-06 21:47 | 45.25851 | -75.35414 | 29345 ft | 392 kts | 254° |
| 2026-05-06 21:47 | 45.25190 | -75.39173 | 29661 ft | 394 kts | 254° |
| 2026-05-06 21:48 | 45.24524 | -75.42951 | 29962 ft | 396 kts | 254° |
| 2026-05-06 21:48 | 45.23851 | -75.46753 | 30247 ft | 397 kts | 254° |
| 2026-05-06 21:48 | 45.23178 | -75.50545 | 30632 ft | 396 kts | 254° |
| 2026-05-06 21:48 | 45.22506 | -75.54324 | 31040 ft | 394 kts | 254° |
| 2026-05-06 21:49 | 45.21836 | -75.58089 | 31452 ft | 393 kts | 254° |
| 2026-05-06 21:49 | 45.21170 | -75.61837 | 31889 ft | 391 kts | 254° |
| 2026-05-06 21:49 | 45.20505 | -75.65570 | 32325 ft | 390 kts | 253° |
| 2026-05-06 21:49 | 45.19841 | -75.69289 | 32741 ft | 388 kts | 253° |
| 2026-05-06 21:50 | 45.19177 | -75.72994 | 33147 ft | 387 kts | 253° |
| 2026-05-06 21:50 | 45.18512 | -75.76681 | 33549 ft | 386 kts | 253° |
| 2026-05-06 21:50 | 45.17848 | -75.80362 | 33927 ft | 385 kts | 253° |
| 2026-05-06 21:50 | 45.17187 | -75.84032 | 34240 ft | 384 kts | 253° |
| 2026-05-06 21:51 | 45.16523 | -75.87695 | 34541 ft | 383 kts | 253° |
| 2026-05-06 21:51 | 45.15859 | -75.91347 | 34835 ft | 383 kts | 253° |
| 2026-05-06 21:51 | 45.15196 | -75.94999 | 35129 ft | 382 kts | 253° |
| 2026-05-06 21:51 | 45.14533 | -75.98637 | 35412 ft | 381 kts | 254° |
| 2026-05-06 21:52 | 45.13869 | -76.02273 | 35696 ft | 381 kts | 254° |
| 2026-05-06 21:52 | 45.13203 | -76.05907 | 35858 ft | 381 kts | 253° |
| 2026-05-06 21:52 | 45.11898 | -76.13068 | 35844 ft | 376 kts | 254° |
| 2026-05-06 21:53 | 45.10584 | -76.20207 | 35865 ft | 374 kts | 253° |
| 2026-05-06 21:53 | 45.08564 | -76.26932 | 35868 ft | 373 kts | 241° |
| 2026-05-06 21:54 | 45.06034 | -76.33331 | 35868 ft | 373 kts | 242° |
| 2026-05-06 21:54 | 45.03508 | -76.39733 | 35874 ft | 373 kts | 242° |
| 2026-05-06 21:55 | 45.00984 | -76.46126 | 35875 ft | 373 kts | 242° |
| 2026-05-06 21:55 | 44.98446 | -76.52523 | 35896 ft | 373 kts | 241° |
| 2026-05-06 21:56 | 44.95906 | -76.58916 | 35867 ft | 373 kts | 241° |
| 2026-05-06 21:56 | 44.93359 | -76.65313 | 35872 ft | 374 kts | 241° |
| 2026-05-06 21:57 | 44.90801 | -76.71702 | 35880 ft | 374 kts | 241° |
| 2026-05-06 21:57 | 44.88256 | -76.78059 | 35882 ft | 375 kts | 241° |
| 2026-05-06 21:58 | 44.85696 | -76.84452 | 35884 ft | 375 kts | 241° |
| 2026-05-06 21:58 | 44.83123 | -76.90839 | 35892 ft | 375 kts | 241° |
| 2026-05-06 21:59 | 44.80547 | -76.97221 | 35873 ft | 375 kts | 241° |
| 2026-05-06 21:59 | 44.77976 | -77.03602 | 35897 ft | 375 kts | 241° |
| 2026-05-06 22:00 | 44.75402 | -77.09982 | 35897 ft | 375 kts | 241° |
| 2026-05-06 22:00 | 44.72822 | -77.16361 | 35902 ft | 375 kts | 241° |
| 2026-05-06 22:01 | 44.70234 | -77.22733 | 35902 ft | 375 kts | 241° |
| 2026-05-06 22:01 | 44.67642 | -77.29106 | 35902 ft | 375 kts | 241° |
| 2026-05-06 22:02 | 44.65054 | -77.35467 | 35894 ft | 375 kts | 241° |
| 2026-05-06 22:02 | 44.62455 | -77.41814 | 35899 ft | 375 kts | 241° |
| 2026-05-06 22:03 | 44.59854 | -77.48161 | 35927 ft | 375 kts | 241° |
| 2026-05-06 22:03 | 44.57271 | -77.54456 | 35919 ft | 375 kts | 241° |
| 2026-05-06 22:04 | 44.54661 | -77.60787 | 35920 ft | 375 kts | 241° |
| 2026-05-06 22:04 | 44.52049 | -77.67114 | 35894 ft | 375 kts | 242° |
| 2026-05-06 22:05 | 44.49437 | -77.73432 | 35900 ft | 374 kts | 242° |
| 2026-05-06 22:05 | 44.46825 | -77.79738 | 35913 ft | 374 kts | 242° |
| 2026-05-06 22:06 | 44.44212 | -77.86044 | 35490 ft | 377 kts | 241° |
| 2026-05-06 22:06 | 44.42872 | -77.89259 | 34529 ft | 386 kts | 241° |
| 2026-05-06 22:06 | 44.41519 | -77.92498 | 33881 ft | 386 kts | 241° |
| 2026-05-06 22:07 | 44.40156 | -77.95757 | 33073 ft | 389 kts | 241° |
| 2026-05-06 22:07 | 44.38789 | -77.99022 | 32314 ft | 389 kts | 241° |
| 2026-05-06 22:07 | 44.37423 | -78.02274 | 31829 ft | 385 kts | 241° |
| 2026-05-06 22:07 | 44.36078 | -78.05475 | 31316 ft | 380 kts | 242° |
| 2026-05-06 22:08 | 44.34746 | -78.08647 | 30735 ft | 377 kts | 242° |
| 2026-05-06 22:08 | 44.33423 | -78.11798 | 30146 ft | 375 kts | 242° |
| 2026-05-06 22:08 | 44.32110 | -78.14925 | 29502 ft | 372 kts | 242° |
| 2026-05-06 22:08 | 44.30804 | -78.18031 | 28937 ft | 368 kts | 242° |
| 2026-05-06 22:09 | 44.29515 | -78.21082 | 28365 ft | 363 kts | 241° |
| 2026-05-06 22:09 | 44.28239 | -78.24104 | 27810 ft | 359 kts | 241° |
| 2026-05-06 22:09 | 44.26979 | -78.27085 | 27263 ft | 355 kts | 241° |
| 2026-05-06 22:09 | 44.25731 | -78.30041 | 26730 ft | 351 kts | 241° |
| 2026-05-06 22:10 | 44.24494 | -78.32957 | 26200 ft | 348 kts | 240° |
| 2026-05-06 22:10 | 44.23268 | -78.35844 | 25689 ft | 344 kts | 240° |
| 2026-05-06 22:10 | 44.22058 | -78.38695 | 25183 ft | 340 kts | 240° |
| 2026-05-06 22:10 | 44.20859 | -78.41514 | 24707 ft | 336 kts | 240° |
| 2026-05-06 22:11 | 44.19676 | -78.44302 | 24234 ft | 332 kts | 240° |
| 2026-05-06 22:11 | 44.18507 | -78.47058 | 23778 ft | 328 kts | 239° |
| 2026-05-06 22:11 | 44.17368 | -78.49734 | 23384 ft | 323 kts | 239° |
| 2026-05-06 22:11 | 44.16216 | -78.52440 | 22917 ft | 318 kts | 239° |
| 2026-05-06 22:12 | 44.15116 | -78.55031 | 22491 ft | 312 kts | 239° |
| 2026-05-06 22:12 | 44.14019 | -78.57609 | 22072 ft | 308 kts | 239° |
| 2026-05-06 22:12 | 44.12936 | -78.60150 | 21658 ft | 303 kts | 239° |
| 2026-05-06 22:12 | 44.11864 | -78.62654 | 21231 ft | 299 kts | 239° |
| 2026-05-06 22:13 | 44.10800 | -78.65127 | 20822 ft | 296 kts | 239° |
| 2026-05-06 22:13 | 44.09751 | -78.67570 | 20411 ft | 293 kts | 239° |
| 2026-05-06 22:13 | 44.08711 | -78.69994 | 19996 ft | 291 kts | 239° |
| 2026-05-06 22:13 | 44.07680 | -78.72401 | 19572 ft | 288 kts | 239° |
| 2026-05-06 22:14 | 44.06655 | -78.74789 | 19147 ft | 286 kts | 239° |
| 2026-05-06 22:14 | 44.05637 | -78.77155 | 18725 ft | 284 kts | 240° |
| 2026-05-06 22:14 | 44.04640 | -78.79467 | 18574 ft | 273 kts | 240° |
| 2026-05-06 22:14 | 44.03670 | -78.81702 | 18303 ft | 268 kts | 239° |
| 2026-05-06 22:15 | 44.02683 | -78.83886 | 17884 ft | 266 kts | 238° |
| 2026-05-06 22:15 | 44.01690 | -78.86048 | 17430 ft | 265 kts | 238° |
| 2026-05-06 22:15 | 44.00696 | -78.88204 | 17008 ft | 264 kts | 239° |
| 2026-05-06 22:15 | 43.99707 | -78.90350 | 16576 ft | 264 kts | 239° |
| 2026-05-06 22:16 | 43.98722 | -78.92494 | 16156 ft | 263 kts | 239° |
| 2026-05-06 22:16 | 43.97737 | -78.94634 | 15749 ft | 263 kts | 239° |
| 2026-05-06 22:16 | 43.96755 | -78.96766 | 15437 ft | 260 kts | 239° |
| 2026-05-06 22:16 | 43.95776 | -78.98894 | 15282 ft | 262 kts | 239° |
| 2026-05-06 22:17 | 43.94797 | -79.01023 | 14918 ft | 262 kts | 239° |
| 2026-05-06 22:17 | 43.93815 | -79.03159 | 14579 ft | 263 kts | 239° |
| 2026-05-06 22:17 | 43.92831 | -79.05303 | 14163 ft | 263 kts | 240° |
| 2026-05-06 22:17 | 43.91847 | -79.07448 | 13777 ft | 264 kts | 240° |
| 2026-05-06 22:18 | 43.90859 | -79.09600 | 13327 ft | 265 kts | 240° |
| 2026-05-06 22:18 | 43.89869 | -79.11750 | 12858 ft | 265 kts | 240° |
| 2026-05-06 22:18 | 43.88876 | -79.13906 | 12409 ft | 266 kts | 239° |
| 2026-05-06 22:18 | 43.87879 | -79.16066 | 11972 ft | 266 kts | 239° |
| 2026-05-06 22:19 | 43.86880 | -79.18229 | 11542 ft | 267 kts | 239° |
| 2026-05-06 22:19 | 43.85895 | -79.20362 | 11109 ft | 259 kts | 240° |
| 2026-05-06 22:19 | 43.84940 | -79.22424 | 10681 ft | 256 kts | 240° |
| 2026-05-06 22:19 | 43.83981 | -79.24495 | 10265 ft | 255 kts | 240° |
| 2026-05-06 22:20 | 43.83026 | -79.26560 | 9864 ft | 254 kts | 240° |
| 2026-05-06 22:20 | 43.82073 | -79.28614 | 9405 ft | 253 kts | 240° |
| 2026-05-06 22:20 | 43.81118 | -79.30666 | 8948 ft | 253 kts | 239° |
| 2026-05-06 22:20 | 43.80165 | -79.32715 | 8494 ft | 253 kts | 240° |
| 2026-05-06 22:21 | 43.79211 | -79.34765 | 8074 ft | 253 kts | 238° |
| 2026-05-06 22:21 | 43.78035 | -79.36591 | 8028 ft | 258 kts | 224° |
| 2026-05-06 22:21 | 43.76607 | -79.38033 | 8022 ft | 247 kts | 219° |
| 2026-05-06 22:21 | 43.75240 | -79.39352 | 8023 ft | 233 kts | 219° |
| 2026-05-06 22:22 | 43.73907 | -79.40640 | 8026 ft | 233 kts | 220° |
| 2026-05-06 22:22 | 43.72595 | -79.41911 | 8021 ft | 228 kts | 220° |
| 2026-05-06 22:22 | 43.71304 | -79.43164 | 8032 ft | 226 kts | 220° |
| 2026-05-06 22:22 | 43.70011 | -79.44421 | 8029 ft | 227 kts | 219° |
| 2026-05-06 22:23 | 43.68720 | -79.45670 | 8024 ft | 226 kts | 220° |
| 2026-05-06 22:23 | 43.67447 | -79.46905 | 7942 ft | 220 kts | 220° |
| 2026-05-06 22:23 | 43.66208 | -79.48105 | 7746 ft | 216 kts | 220° |
| 2026-05-06 22:23 | 43.64985 | -79.49292 | 7500 ft | 213 kts | 220° |
| 2026-05-06 22:24 | 43.63771 | -79.50459 | 7111 ft | 212 kts | 219° |
| 2026-05-06 22:24 | 43.62563 | -79.51610 | 6574 ft | 211 kts | 218° |
| 2026-05-06 22:24 | 43.61346 | -79.52769 | 5946 ft | 214 kts | 218° |
| 2026-05-06 22:24 | 43.60534 | -79.53540 | 5522 ft | 215 kts | 218° |
| 2026-05-06 22:25 | 43.59355 | -79.54803 | 4873 ft | 214 kts | 229° |
| 2026-05-06 22:25 | 43.58340 | -79.56295 | 4164 ft | 214 kts | 230° |
| 2026-05-06 22:25 | 43.56982 | -79.58277 | 3313 ft | 214 kts | 229° |
| 2026-05-06 22:25 | 43.55950 | -79.59779 | 3175 ft | 217 kts | 229° |
| 2026-05-06 22:26 | 43.54909 | -79.61291 | 3069 ft | 216 kts | 229° |
| 2026-05-06 22:26 | 43.54214 | -79.62299 | 3035 ft | 214 kts | 229° |
| 2026-05-06 22:26 | 43.53192 | -79.63782 | 3038 ft | 213 kts | 229° |
| 2026-05-06 22:26 | 43.52169 | -79.65263 | 3042 ft | 213 kts | 229° |
| 2026-05-06 22:27 | 43.50819 | -79.67222 | 3042 ft | 213 kts | 229° |
| 2026-05-06 22:27 | 43.50132 | -79.68221 | 3042 ft | 213 kts | 229° |
| 2026-05-06 22:27 | 43.49114 | -79.69700 | 3042 ft | 213 kts | 229° |
| 2026-05-06 22:27 | 43.48124 | -79.71179 | 3038 ft | 212 kts | 234° |
| 2026-05-06 22:28 | 43.47624 | -79.73027 | 3041 ft | 208 kts | 269° |
| 2026-05-06 22:28 | 43.48027 | -79.74918 | 3045 ft | 207 kts | 304° |
| 2026-05-06 22:28 | 43.49112 | -79.76166 | 3055 ft | 208 kts | 327° |
| 2026-05-06 22:28 | 43.50340 | -79.77114 | 3046 ft | 196 kts | 329° |
| 2026-05-06 22:29 | 43.51547 | -79.77921 | 3040 ft | 192 kts | 341° |
| 2026-05-06 22:29 | 43.52874 | -79.77828 | 3053 ft | 196 kts | 14° |
| 2026-05-06 22:29 | 43.54152 | -79.77160 | 3054 ft | 196 kts | 19° |
| 2026-05-06 22:29 | 43.55403 | -79.76425 | 3053 ft | 195 kts | 20° |
| 2026-05-06 22:30 | 43.56651 | -79.75680 | 3042 ft | 196 kts | 21° |
| 2026-05-06 22:30 | 43.57726 | -79.74534 | 2984 ft | 197 kts | 43° |
| 2026-05-06 22:30 | 43.58626 | -79.73202 | 2769 ft | 180 kts | 43° |
| 2026-05-06 22:30 | 43.59441 | -79.72006 | 2538 ft | 162 kts | 41° |
| 2026-05-06 22:31 | 43.60175 | -79.70938 | 2332 ft | 148 kts | 41° |
| 2026-05-06 22:31 | 43.60873 | -79.69928 | 2139 ft | 144 kts | 41° |
| 2026-05-06 22:31 | 43.61558 | -79.68935 | 1943 ft | 142 kts | 43° |
| 2026-05-06 22:31 | 43.62229 | -79.67944 | 1731 ft | 140 kts | 42° |
| 2026-05-06 22:32 | 43.62885 | -79.66951 | 1509 ft | 140 kts | 44° |
| 2026-05-06 22:32 | 43.63545 | -79.65973 | 1300 ft | 138 kts | 43° |
| 2026-05-06 22:32 | 43.64226 | -79.65042 | 1085 ft | 137 kts | 41° |
| 2026-05-06 22:32 | 43.64903 | -79.64133 | 936 ft | 134 kts | 45° |
| 2026-05-06 22:33 | 43.65538 | -79.63188 | 745 ft | 134 kts | 44° |
| 2026-05-06 22:33 | 43.66171 | -79.62248 | 614 ft | 129 kts | 44° |
| 2026-05-06 22:33 | 43.66725 | -79.61442 | 572 ft | 90 kts | 46° |
| 2026-05-06 22:33 | 43.66982 | -79.61083 | 572 ft | 24 kts | 31° |
| 2026-05-06 22:34 | 43.67099 | -79.61053 | 564 ft | 12 kts | 4° |
| 2026-05-06 22:34 | 43.67170 | -79.61122 | 561 ft | 13 kts | 316° |
| 2026-05-06 22:34 | 43.67233 | -79.61204 | 568 ft | 12 kts | 317° |
| 2026-05-06 22:34 | 43.67304 | -79.61296 | 569 ft | 19 kts | 317° |
| 2026-05-06 22:35 | 43.67407 | -79.61430 | 565 ft | 20 kts | 317° |
| 2026-05-06 22:35 | 43.67505 | -79.61557 | 563 ft | 19 kts | 316° |
| 2026-05-06 22:35 | 43.67602 | -79.61683 | 563 ft | 19 kts | 317° |
| 2026-05-06 22:35 | 43.67700 | -79.61807 | 570 ft | 19 kts | 317° |
| 2026-05-06 22:36 | 43.67795 | -79.61934 | 563 ft | 19 kts | 311° |
| 2026-05-06 22:36 | 43.67871 | -79.62033 | 566 ft | 9 kts | 320° |
| 2026-05-06 22:36 | 43.67932 | -79.62051 | 566 ft | 10 kts | 12° |
| 2026-05-06 22:36 | 43.67984 | -79.61982 | 563 ft | 11 kts | 71° |
| 2026-05-06 22:37 | 43.68015 | -79.61889 | 568 ft | 11 kts | 46° |
| 2026-05-06 22:37 | 43.68065 | -79.61821 | 568 ft | 9 kts | 46° |
| 2026-05-06 22:37 | 43.68067 | -79.61769 | 565 ft | 5 kts | 126° |
| 2026-05-06 22:37 | 43.68046 | -79.61738 | 565 ft | 4 kts | 134° |
| 2026-05-06 22:38 | 43.68031 | -79.61717 | 567 ft | 0 kts | 136° |